sensor_id;sensor_type;location;lat;lon;timestamp;P1;durP1;ratioP1;P2;durP2;ratioP2
16193;SDS011;8204;53.582;10.080;2023-12-29T00:01:16;10.07;;;3.03;;
16193;SDS011;8204;53.582;10.080;2023-12-29T00:03:42;5.90;;;3.37;;
16193;SDS011;8204;53.582;10.080;2023-12-29T00:06:07;9.20;;;4.03;;
16193;SDS011;8204;53.582;10.080;2023-12-29T00:08:33;24.17;;;4.40;;
16193;SDS011;8204;53.582;10.080;2023-12-29T00:10:58;10.77;;;4.23;;
16193;SDS011;8204;53.582;10.080;2023-12-29T00:13:24;9.90;;;4.07;;
16193;SDS011;8204;53.582;10.080;2023-12-29T00:15:54;6.97;;;3.80;;
16193;SDS011;8204;53.582;10.080;2023-12-29T00:18:20;7.40;;;4.30;;
16193;SDS011;8204;53.582;10.080;2023-12-29T00:20:45;6.07;;;3.37;;
16193;SDS011;8204;53.582;10.080;2023-12-29T00:23:11;6.37;;;3.40;;
16193;SDS011;8204;53.582;10.080;2023-12-29T00:25:36;9.33;;;4.40;;
16193;SDS011;8204;53.582;10.080;2023-12-29T00:28:02;8.77;;;4.00;;
16193;SDS011;8204;53.582;10.080;2023-12-29T00:30:28;9.77;;;3.70;;
16193;SDS011;8204;53.582;10.080;2023-12-29T00:32:54;9.40;;;4.63;;
16193;SDS011;8204;53.582;10.080;2023-12-29T00:35:20;10.07;;;4.47;;
16193;SDS011;8204;53.582;10.080;2023-12-29T00:37:45;7.73;;;3.70;;
16193;SDS011;8204;53.582;10.080;2023-12-29T00:40:11;7.83;;;3.97;;
16193;SDS011;8204;53.582;10.080;2023-12-29T00:42:37;10.37;;;5.00;;
16193;SDS011;8204;53.582;10.080;2023-12-29T00:45:03;5.57;;;4.30;;
16193;SDS011;8204;53.582;10.080;2023-12-29T00:47:28;12.50;;;4.90;;
16193;SDS011;8204;53.582;10.080;2023-12-29T00:49:54;9.50;;;3.63;;
16193;SDS011;8204;53.582;10.080;2023-12-29T00:52:20;10.10;;;4.33;;
16193;SDS011;8204;53.582;10.080;2023-12-29T00:54:45;10.40;;;4.47;;
16193;SDS011;8204;53.582;10.080;2023-12-29T00:57:11;11.43;;;4.63;;
16193;SDS011;8204;53.582;10.080;2023-12-29T00:59:37;10.43;;;3.90;;
16193;SDS011;8204;53.582;10.080;2023-12-29T01:02:05;9.27;;;4.60;;
16193;SDS011;8204;53.582;10.080;2023-12-29T01:04:30;6.03;;;3.77;;
16193;SDS011;8204;53.582;10.080;2023-12-29T01:06:56;10.97;;;5.67;;
16193;SDS011;8204;53.582;10.080;2023-12-29T01:09:21;8.70;;;4.03;;
16193;SDS011;8204;53.582;10.080;2023-12-29T01:11:47;7.47;;;4.60;;
16193;SDS011;8204;53.582;10.080;2023-12-29T01:14:12;10.17;;;4.50;;
16193;SDS011;8204;53.582;10.080;2023-12-29T01:16:39;12.97;;;4.87;;
16193;SDS011;8204;53.582;10.080;2023-12-29T01:19:05;5.93;;;4.20;;
16193;SDS011;8204;53.582;10.080;2023-12-29T01:21:31;9.33;;;3.27;;
16193;SDS011;8204;53.582;10.080;2023-12-29T01:23:59;7.63;;;3.87;;
16193;SDS011;8204;53.582;10.080;2023-12-29T01:26:26;10.10;;;3.73;;
16193;SDS011;8204;53.582;10.080;2023-12-29T01:28:51;11.93;;;3.70;;
16193;SDS011;8204;53.582;10.080;2023-12-29T01:31:17;7.27;;;5.00;;
16193;SDS011;8204;53.582;10.080;2023-12-29T01:33:44;8.17;;;4.07;;
16193;SDS011;8204;53.582;10.080;2023-12-29T01:36:16;9.17;;;4.30;;
16193;SDS011;8204;53.582;10.080;2023-12-29T01:38:42;11.53;;;4.97;;
16193;SDS011;8204;53.582;10.080;2023-12-29T01:41:07;16.77;;;5.73;;
16193;SDS011;8204;53.582;10.080;2023-12-29T01:43:33;9.63;;;4.37;;
16193;SDS011;8204;53.582;10.080;2023-12-29T01:45:58;8.70;;;4.00;;
16193;SDS011;8204;53.582;10.080;2023-12-29T01:48:24;4.33;;;3.60;;
16193;SDS011;8204;53.582;10.080;2023-12-29T01:50:50;6.93;;;3.90;;
16193;SDS011;8204;53.582;10.080;2023-12-29T01:53:16;8.27;;;3.57;;
16193;SDS011;8204;53.582;10.080;2023-12-29T01:55:42;5.43;;;3.63;;
16193;SDS011;8204;53.582;10.080;2023-12-29T01:58:08;7.00;;;3.80;;
16193;SDS011;8204;53.582;10.080;2023-12-29T02:00:33;7.90;;;3.30;;
16193;SDS011;8204;53.582;10.080;2023-12-29T02:03:00;11.50;;;4.57;;
16193;SDS011;8204;53.582;10.080;2023-12-29T02:05:26;7.83;;;3.90;;
16193;SDS011;8204;53.582;10.080;2023-12-29T02:07:52;9.57;;;3.97;;
16193;SDS011;8204;53.582;10.080;2023-12-29T02:10:18;10.33;;;3.83;;
16193;SDS011;8204;53.582;10.080;2023-12-29T02:12:44;11.07;;;3.73;;
16193;SDS011;8204;53.582;10.080;2023-12-29T02:15:13;5.50;;;3.90;;
16193;SDS011;8204;53.582;10.080;2023-12-29T02:17:40;7.23;;;3.97;;
16193;SDS011;8204;53.582;10.080;2023-12-29T02:20:10;6.67;;;3.50;;
16193;SDS011;8204;53.582;10.080;2023-12-29T02:22:36;11.90;;;4.07;;
16193;SDS011;8204;53.582;10.080;2023-12-29T02:25:02;7.80;;;3.83;;
16193;SDS011;8204;53.582;10.080;2023-12-29T02:30:39;11.10;;;3.43;;
16193;SDS011;8204;53.582;10.080;2023-12-29T02:33:16;4.83;;;2.97;;
16193;SDS011;8204;53.582;10.080;2023-12-29T02:35:45;8.07;;;3.60;;
16193;SDS011;8204;53.582;10.080;2023-12-29T02:38:12;7.77;;;3.30;;
16193;SDS011;8204;53.582;10.080;2023-12-29T02:40:38;3.60;;;2.93;;
16193;SDS011;8204;53.582;10.080;2023-12-29T02:43:04;10.93;;;3.30;;
16193;SDS011;8204;53.582;10.080;2023-12-29T02:45:30;4.93;;;3.77;;
16193;SDS011;8204;53.582;10.080;2023-12-29T02:47:56;7.80;;;4.33;;
16193;SDS011;8204;53.582;10.080;2023-12-29T02:50:22;6.47;;;3.47;;
16193;SDS011;8204;53.582;10.080;2023-12-29T02:52:48;6.60;;;3.30;;
16193;SDS011;8204;53.582;10.080;2023-12-29T02:55:13;6.03;;;3.23;;
16193;SDS011;8204;53.582;10.080;2023-12-29T02:57:39;7.33;;;2.73;;
16193;SDS011;8204;53.582;10.080;2023-12-29T03:00:04;7.93;;;3.63;;
16193;SDS011;8204;53.582;10.080;2023-12-29T03:02:31;4.83;;;3.37;;
16193;SDS011;8204;53.582;10.080;2023-12-29T03:04:56;8.20;;;3.27;;
16193;SDS011;8204;53.582;10.080;2023-12-29T03:07:21;5.30;;;3.30;;
16193;SDS011;8204;53.582;10.080;2023-12-29T03:09:47;6.13;;;3.53;;
16193;SDS011;8204;53.582;10.080;2023-12-29T03:12:12;4.90;;;3.50;;
16193;SDS011;8204;53.582;10.080;2023-12-29T03:14:39;4.00;;;3.00;;
16193;SDS011;8204;53.582;10.080;2023-12-29T03:17:04;4.40;;;3.47;;
16193;SDS011;8204;53.582;10.080;2023-12-29T03:19:30;4.33;;;2.20;;
16193;SDS011;8204;53.582;10.080;2023-12-29T03:21:55;6.73;;;2.93;;
16193;SDS011;8204;53.582;10.080;2023-12-29T03:24:20;4.40;;;2.57;;
16193;SDS011;8204;53.582;10.080;2023-12-29T03:26:47;5.33;;;2.87;;
16193;SDS011;8204;53.582;10.080;2023-12-29T03:29:12;4.23;;;2.57;;
16193;SDS011;8204;53.582;10.080;2023-12-29T03:31:38;5.80;;;2.33;;
16193;SDS011;8204;53.582;10.080;2023-12-29T03:34:05;6.10;;;2.77;;
16193;SDS011;8204;53.582;10.080;2023-12-29T03:36:30;6.33;;;2.53;;
16193;SDS011;8204;53.582;10.080;2023-12-29T03:38:55;6.17;;;2.50;;
16193;SDS011;8204;53.582;10.080;2023-12-29T03:41:21;5.13;;;2.53;;
16193;SDS011;8204;53.582;10.080;2023-12-29T03:43:46;3.73;;;2.40;;
16193;SDS011;8204;53.582;10.080;2023-12-29T03:46:21;2.67;;;1.73;;
16193;SDS011;8204;53.582;10.080;2023-12-29T03:48:48;7.67;;;2.50;;
16193;SDS011;8204;53.582;10.080;2023-12-29T03:51:14;6.47;;;2.37;;
16193;SDS011;8204;53.582;10.080;2023-12-29T03:53:40;4.70;;;2.37;;
16193;SDS011;8204;53.582;10.080;2023-12-29T03:56:16;3.93;;;2.40;;
16193;SDS011;8204;53.582;10.080;2023-12-29T03:58:47;3.23;;;1.90;;
16193;SDS011;8204;53.582;10.080;2023-12-29T04:01:13;6.37;;;2.77;;
16193;SDS011;8204;53.582;10.080;2023-12-29T04:03:39;4.90;;;1.97;;
16193;SDS011;8204;53.582;10.080;2023-12-29T04:06:05;3.80;;;2.50;;
16193;SDS011;8204;53.582;10.080;2023-12-29T04:08:31;5.13;;;2.73;;
16193;SDS011;8204;53.582;10.080;2023-12-29T04:10:57;2.77;;;2.47;;
16193;SDS011;8204;53.582;10.080;2023-12-29T04:13:22;6.47;;;2.50;;
16193;SDS011;8204;53.582;10.080;2023-12-29T04:15:48;4.67;;;2.10;;
16193;SDS011;8204;53.582;10.080;2023-12-29T04:18:13;3.97;;;2.50;;
16193;SDS011;8204;53.582;10.080;2023-12-29T04:20:39;3.33;;;1.77;;
16193;SDS011;8204;53.582;10.080;2023-12-29T04:23:06;2.83;;;1.77;;
16193;SDS011;8204;53.582;10.080;2023-12-29T04:25:32;2.47;;;1.57;;
16193;SDS011;8204;53.582;10.080;2023-12-29T04:27:57;4.07;;;1.13;;
16193;SDS011;8204;53.582;10.080;2023-12-29T04:30:23;5.63;;;1.50;;
16193;SDS011;8204;53.582;10.080;2023-12-29T04:32:48;2.90;;;1.70;;
16193;SDS011;8204;53.582;10.080;2023-12-29T04:35:13;1.83;;;1.47;;
16193;SDS011;8204;53.582;10.080;2023-12-29T04:37:40;1.37;;;0.90;;
16193;SDS011;8204;53.582;10.080;2023-12-29T04:40:09;3.33;;;1.40;;
16193;SDS011;8204;53.582;10.080;2023-12-29T04:42:35;3.90;;;1.27;;
16193;SDS011;8204;53.582;10.080;2023-12-29T04:45:00;5.07;;;1.83;;
16193;SDS011;8204;53.582;10.080;2023-12-29T04:47:26;3.10;;;1.43;;
16193;SDS011;8204;53.582;10.080;2023-12-29T04:49:51;7.17;;;1.60;;
16193;SDS011;8204;53.582;10.080;2023-12-29T04:52:16;2.47;;;1.40;;
16193;SDS011;8204;53.582;10.080;2023-12-29T04:54:42;3.40;;;1.43;;
16193;SDS011;8204;53.582;10.080;2023-12-29T04:57:07;10.40;;;1.90;;
16193;SDS011;8204;53.582;10.080;2023-12-29T04:59:33;6.10;;;1.57;;
16193;SDS011;8204;53.582;10.080;2023-12-29T05:01:58;2.53;;;1.33;;
16193;SDS011;8204;53.582;10.080;2023-12-29T05:04:23;1.43;;;1.33;;
16193;SDS011;8204;53.582;10.080;2023-12-29T05:06:49;3.83;;;1.60;;
16193;SDS011;8204;53.582;10.080;2023-12-29T05:09:14;2.87;;;1.47;;
16193;SDS011;8204;53.582;10.080;2023-12-29T05:11:40;4.90;;;1.60;;
16193;SDS011;8204;53.582;10.080;2023-12-29T05:14:05;6.77;;;2.50;;
16193;SDS011;8204;53.582;10.080;2023-12-29T05:16:30;7.67;;;2.60;;
16193;SDS011;8204;53.582;10.080;2023-12-29T05:18:56;4.63;;;1.80;;
16193;SDS011;8204;53.582;10.080;2023-12-29T05:21:21;7.60;;;2.20;;
16193;SDS011;8204;53.582;10.080;2023-12-29T05:23:49;6.00;;;2.80;;
16193;SDS011;8204;53.582;10.080;2023-12-29T05:26:14;4.50;;;2.63;;
16193;SDS011;8204;53.582;10.080;2023-12-29T05:28:40;3.73;;;1.77;;
16193;SDS011;8204;53.582;10.080;2023-12-29T05:31:05;8.40;;;2.70;;
16193;SDS011;8204;53.582;10.080;2023-12-29T05:33:31;3.00;;;2.07;;
16193;SDS011;8204;53.582;10.080;2023-12-29T05:35:57;5.00;;;2.67;;
16193;SDS011;8204;53.582;10.080;2023-12-29T05:38:23;3.50;;;1.93;;
16193;SDS011;8204;53.582;10.080;2023-12-29T05:40:48;2.67;;;1.30;;
16193;SDS011;8204;53.582;10.080;2023-12-29T05:43:15;8.40;;;2.33;;
16193;SDS011;8204;53.582;10.080;2023-12-29T05:45:40;3.37;;;1.63;;
16193;SDS011;8204;53.582;10.080;2023-12-29T05:48:06;3.53;;;1.70;;
16193;SDS011;8204;53.582;10.080;2023-12-29T05:50:31;8.93;;;2.50;;
16193;SDS011;8204;53.582;10.080;2023-12-29T05:52:57;5.03;;;2.30;;
16193;SDS011;8204;53.582;10.080;2023-12-29T05:55:22;4.37;;;1.73;;
16193;SDS011;8204;53.582;10.080;2023-12-29T05:57:47;3.33;;;1.77;;
16193;SDS011;8204;53.582;10.080;2023-12-29T06:00:13;2.47;;;1.40;;
16193;SDS011;8204;53.582;10.080;2023-12-29T06:02:42;3.40;;;1.90;;
16193;SDS011;8204;53.582;10.080;2023-12-29T06:05:10;5.53;;;1.77;;
16193;SDS011;8204;53.582;10.080;2023-12-29T06:07:36;4.30;;;1.87;;
16193;SDS011;8204;53.582;10.080;2023-12-29T06:10:01;5.70;;;2.20;;
16193;SDS011;8204;53.582;10.080;2023-12-29T06:12:27;6.40;;;2.37;;
16193;SDS011;8204;53.582;10.080;2023-12-29T06:14:52;3.87;;;2.10;;
16193;SDS011;8204;53.582;10.080;2023-12-29T06:17:18;11.87;;;3.30;;
16193;SDS011;8204;53.582;10.080;2023-12-29T06:19:43;5.10;;;2.97;;
16193;SDS011;8204;53.582;10.080;2023-12-29T06:22:09;5.93;;;3.03;;
16193;SDS011;8204;53.582;10.080;2023-12-29T06:24:39;5.93;;;2.90;;
16193;SDS011;8204;53.582;10.080;2023-12-29T06:27:08;10.40;;;3.27;;
16193;SDS011;8204;53.582;10.080;2023-12-29T06:29:34;13.20;;;3.00;;
16193;SDS011;8204;53.582;10.080;2023-12-29T06:31:59;6.93;;;3.10;;
16193;SDS011;8204;53.582;10.080;2023-12-29T06:34:25;9.67;;;3.27;;
16193;SDS011;8204;53.582;10.080;2023-12-29T06:36:50;6.27;;;3.53;;
16193;SDS011;8204;53.582;10.080;2023-12-29T06:39:16;6.23;;;3.73;;
16193;SDS011;8204;53.582;10.080;2023-12-29T06:41:42;9.17;;;3.57;;
16193;SDS011;8204;53.582;10.080;2023-12-29T06:44:07;7.57;;;4.57;;
16193;SDS011;8204;53.582;10.080;2023-12-29T06:46:32;10.37;;;4.53;;
16193;SDS011;8204;53.582;10.080;2023-12-29T06:48:58;10.47;;;4.73;;
16193;SDS011;8204;53.582;10.080;2023-12-29T06:51:23;4.83;;;4.43;;
16193;SDS011;8204;53.582;10.080;2023-12-29T06:53:49;7.77;;;5.17;;
16193;SDS011;8204;53.582;10.080;2023-12-29T06:56:15;7.93;;;5.57;;
16193;SDS011;8204;53.582;10.080;2023-12-29T06:58:41;8.83;;;4.73;;
16193;SDS011;8204;53.582;10.080;2023-12-29T07:01:06;8.70;;;4.43;;
16193;SDS011;8204;53.582;10.080;2023-12-29T07:03:32;11.93;;;5.07;;
16193;SDS011;8204;53.582;10.080;2023-12-29T07:05:59;8.00;;;4.70;;
16193;SDS011;8204;53.582;10.080;2023-12-29T07:08:25;8.70;;;5.67;;
16193;SDS011;8204;53.582;10.080;2023-12-29T07:10:51;9.33;;;5.27;;
16193;SDS011;8204;53.582;10.080;2023-12-29T07:13:16;11.73;;;5.07;;
16193;SDS011;8204;53.582;10.080;2023-12-29T07:15:41;13.10;;;4.63;;
16193;SDS011;8204;53.582;10.080;2023-12-29T07:18:07;9.67;;;5.10;;
16193;SDS011;8204;53.582;10.080;2023-12-29T07:20:32;13.63;;;5.17;;
16193;SDS011;8204;53.582;10.080;2023-12-29T07:22:58;11.43;;;5.67;;
16193;SDS011;8204;53.582;10.080;2023-12-29T07:25:24;15.10;;;5.30;;
16193;SDS011;8204;53.582;10.080;2023-12-29T07:27:50;11.00;;;6.00;;
16193;SDS011;8204;53.582;10.080;2023-12-29T07:30:16;12.87;;;6.07;;
16193;SDS011;8204;53.582;10.080;2023-12-29T07:32:41;13.23;;;5.10;;
16193;SDS011;8204;53.582;10.080;2023-12-29T07:35:07;15.33;;;6.27;;
16193;SDS011;8204;53.582;10.080;2023-12-29T07:37:33;16.17;;;5.83;;
16193;SDS011;8204;53.582;10.080;2023-12-29T07:39:58;9.90;;;4.17;;
16193;SDS011;8204;53.582;10.080;2023-12-29T07:42:23;12.23;;;5.07;;
16193;SDS011;8204;53.582;10.080;2023-12-29T07:44:49;12.73;;;5.33;;
16193;SDS011;8204;53.582;10.080;2023-12-29T07:47:16;16.33;;;6.17;;
16193;SDS011;8204;53.582;10.080;2023-12-29T07:49:42;8.63;;;5.00;;
16193;SDS011;8204;53.582;10.080;2023-12-29T07:52:07;15.60;;;5.30;;
16193;SDS011;8204;53.582;10.080;2023-12-29T07:54:33;14.40;;;5.50;;
16193;SDS011;8204;53.582;10.080;2023-12-29T07:56:59;12.37;;;6.07;;
16193;SDS011;8204;53.582;10.080;2023-12-29T07:59:24;18.83;;;6.03;;
16193;SDS011;8204;53.582;10.080;2023-12-29T08:01:50;17.07;;;6.17;;
16193;SDS011;8204;53.582;10.080;2023-12-29T08:04:16;19.00;;;6.17;;
16193;SDS011;8204;53.582;10.080;2023-12-29T08:06:41;16.43;;;6.53;;
16193;SDS011;8204;53.582;10.080;2023-12-29T08:09:07;16.47;;;5.53;;
16193;SDS011;8204;53.582;10.080;2023-12-29T08:11:33;18.40;;;6.77;;
16193;SDS011;8204;53.582;10.080;2023-12-29T08:13:58;12.93;;;6.00;;
16193;SDS011;8204;53.582;10.080;2023-12-29T08:16:24;9.20;;;4.77;;
16193;SDS011;8204;53.582;10.080;2023-12-29T08:18:50;9.40;;;5.03;;
16193;SDS011;8204;53.582;10.080;2023-12-29T08:21:18;18.33;;;5.70;;
16193;SDS011;8204;53.582;10.080;2023-12-29T08:23:45;16.63;;;6.63;;
16193;SDS011;8204;53.582;10.080;2023-12-29T08:26:12;20.27;;;7.20;;
16193;SDS011;8204;53.582;10.080;2023-12-29T08:28:38;13.57;;;5.93;;
16193;SDS011;8204;53.582;10.080;2023-12-29T08:31:03;12.80;;;5.30;;
16193;SDS011;8204;53.582;10.080;2023-12-29T08:33:29;20.83;;;6.77;;
16193;SDS011;8204;53.582;10.080;2023-12-29T08:35:54;16.30;;;5.53;;
16193;SDS011;8204;53.582;10.080;2023-12-29T08:38:25;18.33;;;6.53;;
16193;SDS011;8204;53.582;10.080;2023-12-29T08:40:51;19.20;;;5.43;;
16193;SDS011;8204;53.582;10.080;2023-12-29T08:43:17;22.83;;;7.37;;
16193;SDS011;8204;53.582;10.080;2023-12-29T08:45:46;12.07;;;5.93;;
16193;SDS011;8204;53.582;10.080;2023-12-29T08:48:12;18.97;;;5.57;;
16193;SDS011;8204;53.582;10.080;2023-12-29T08:50:37;18.40;;;5.57;;
16193;SDS011;8204;53.582;10.080;2023-12-29T08:53:03;13.27;;;5.13;;
16193;SDS011;8204;53.582;10.080;2023-12-29T08:55:28;19.37;;;5.13;;
16193;SDS011;8204;53.582;10.080;2023-12-29T08:57:54;10.87;;;4.80;;
16193;SDS011;8204;53.582;10.080;2023-12-29T09:00:19;17.03;;;5.60;;
16193;SDS011;8204;53.582;10.080;2023-12-29T09:02:45;14.93;;;5.80;;
16193;SDS011;8204;53.582;10.080;2023-12-29T09:05:11;17.37;;;5.37;;
16193;SDS011;8204;53.582;10.080;2023-12-29T09:07:37;14.23;;;5.27;;
16193;SDS011;8204;53.582;10.080;2023-12-29T09:10:03;14.20;;;5.40;;
16193;SDS011;8204;53.582;10.080;2023-12-29T09:12:32;10.80;;;6.03;;
16193;SDS011;8204;53.582;10.080;2023-12-29T09:14:58;13.27;;;5.53;;
16193;SDS011;8204;53.582;10.080;2023-12-29T09:17:23;12.23;;;6.13;;
16193;SDS011;8204;53.582;10.080;2023-12-29T09:19:49;14.13;;;7.13;;
16193;SDS011;8204;53.582;10.080;2023-12-29T09:22:15;12.07;;;4.57;;
16193;SDS011;8204;53.582;10.080;2023-12-29T09:24:41;6.60;;;3.17;;
16193;SDS011;8204;53.582;10.080;2023-12-29T09:27:07;11.03;;;4.23;;
16193;SDS011;8204;53.582;10.080;2023-12-29T09:29:32;5.47;;;2.87;;
16193;SDS011;8204;53.582;10.080;2023-12-29T09:31:57;4.07;;;2.40;;
16193;SDS011;8204;53.582;10.080;2023-12-29T09:34:23;3.33;;;1.80;;
16193;SDS011;8204;53.582;10.080;2023-12-29T09:36:48;8.70;;;2.10;;
16193;SDS011;8204;53.582;10.080;2023-12-29T09:39:13;3.13;;;2.40;;
16193;SDS011;8204;53.582;10.080;2023-12-29T09:41:39;2.17;;;1.80;;
16193;SDS011;8204;53.582;10.080;2023-12-29T09:44:14;6.03;;;2.37;;
